Latest Weather Observations for Roebourne Airport

IDW60801

Issued at 11:03 pm WST Monday 29 November 2021 (issued every 10 minutes, with the page automatically refreshed every 10 minutes)

About weather observations | Map of weather stations | Latest weather observations for WA | Other Formats
Station Details ID: 004090 Name: ROEBOURNE AERO Lat: -20.76 Lon: 117.16 Height: 10.7 m
Data from the previous 72 hours. | See also: Recent months at Roebourne Airport
Date/Time
WST
Temp
°C
App
Temp
°C
Dew
Point
°C
Rel
Hum
%
Delta-T
°C
Wind Press
QNH
hPa
Press
MSL
hPa
Rain since
9am
mm
Dir  Spd
km/h
Gust
km/h
Spd
kts
Gust
kts
29/11:00pm 27.8 28.7 22.7 74 3.5 WSW 22 30 12 16 1009.5 1009.5 0.0
29/10:30pm 27.9 29.5 22.2 71 3.8 WSW 17 24 9 13 1009.5 1009.5 0.0
29/10:00pm 28.3 29.1 21.8 68 4.4 W 20 24 11 13 1009.7 1009.7 0.0
29/09:30pm 28.5 29.6 21.3 65 4.8 W 17 24 9 13 1009.6 1009.6 0.0
29/09:00pm 28.9 29.1 21.4 64 5.0 W 22 30 12 16 1009.3 1009.3 0.0
29/08:30pm 29.5 29.2 19.5 55 6.5 W 20 28 11 15 1009.3 1009.3 0.0
29/08:00pm 29.9 29.8 19.9 55 6.6 W 20 24 11 13 1008.8 1008.8 0.0
29/07:30pm 30.4 29.8 19.7 52 7.0 W 22 30 12 16 1008.3 1008.3 0.0
29/07:00pm 30.8 30.0 20.1 53 7.1 WNW 24 30 13 16 1007.9 1007.9 0.0
29/06:30pm 31.5 29.5 19.2 48 8.0 WNW 28 33 15 18 1007.4 1007.4 0.0
29/06:00pm 33.1 28.9 15.6 35 10.9 WNW 32 37 17 20 1006.9 1006.9 0.0
29/05:30pm 34.6 31.8 18.2 37 10.7 NW 30 35 16 19 1006.4 1006.4 0.0
29/05:00pm 36.2 31.8 13.0 24 14.1 NW 28 35 15 19 1006.2 1006.2 0.0
29/04:30pm 36.8 32.6 14.7 26 13.8 NW 30 37 16 20 1005.9 1005.9 0.0
29/04:00pm 37.7 33.4 14.3 25 14.6 NW 30 35 16 19 1006.0 1006.0 0.0
29/03:30pm 38.0 32.9 11.9 21 15.7 NNW 30 35 16 19 1006.1 1006.1 0.0
29/03:00pm 38.8 33.6 10.2 18 16.9 NNW 28 37 15 20 1006.3 1006.3 0.0
29/02:30pm 39.1 33.7 9.6 17 17.3 NNW 28 35 15 19 1006.7 1006.7 0.0
29/02:00pm 39.6 35.6 11.7 19 16.9 NNW 24 30 13 16 1006.9 1006.9 0.0
29/01:30pm 39.3 36.5 14.3 22 15.6 N 22 32 12 17 1007.5 1007.5 0.0
29/01:00pm 38.8 35.9 15.2 24 15.0 N 24 33 13 18 1007.7 1007.7 0.0
29/12:30pm 38.6 35.4 13.1 22 15.7 N 22 32 12 17 1008.0 1008.0 0.0
29/12:00pm 39.0 36.3 13.4 22 15.8 N 20 26 11 14 1008.5 1008.5 0.0
29/11:30am 37.7 34.8 13.0 23 15.1 N 20 28 11 15 1008.9 1008.9 0.0
29/11:00am 38.1 35.9 13.3 22 15.3 NNE 17 24 9 13 1009.2 1009.2 0.0
29/10:30am 36.8 36.1 17.4 32 12.6 NNE 17 22 9 12 1009.7 1009.7 0.0
29/10:00am 35.9 35.7 17.6 34 11.9 NNE 15 26 8 14 1009.7 1009.7 0.0
29/09:30am 36.4 35.7 14.4 27 13.6 NNE 11 15 6 8 1009.8 1009.8 0.0
29/09:00am 35.6 35.1 13.7 27 13.4 ENE 9 15 5 8 1010.1 1010.1 0.0
29/08:30am 34.0 33.0 14.5 31 12.0 ENE 13 19 7 10 1010.2 1010.2 0.0
29/08:00am 32.3 31.0 14.9 35 10.7 ENE 15 19 8 10 1010.2 1010.2 0.0
29/07:30am 30.8 31.2 16.4 42 9.0 E 9 11 5 6 1010.0 1010.0 0.0
29/07:00am 28.7 29.3 16.9 48 7.4 ESE 9 9 5 5 1009.9 1009.9 0.0
29/06:30am 26.1 28.0 16.6 55 5.9 ESE 2 7 1 4 1009.5 1009.5 0.0
29/06:00am 22.7 24.3 15.0 61 4.6 CALM 0 0 0 0 1009.4 1009.4 0.0
29/05:30am 20.7 21.8 14.6 68 3.6 SSE 2 7 1 4 1009.1 1009.1 0.0
29/05:00am 20.7 21.9 13.9 65 3.9 CALM 0 0 0 0 1008.9 1008.9 0.0
29/04:30am 21.5 22.0 15.1 67 3.8 SW 6 7 3 4 1008.8 1008.8 0.0
29/04:00am 21.1 22.5 14.5 66 3.9 CALM 0 0 0 0 1008.6 1008.6 0.0
29/03:30am 22.6 24.8 16.4 68 3.8 CALM 0 0 0 0 1008.4 1008.4 0.0
29/03:00am 23.1 24.5 17.3 70 3.6 WNW 6 7 3 4 1008.3 1008.3 0.0
29/02:30am 22.8 23.4 16.8 69 3.7 SW 9 11 5 6 1008.3 1008.3 0.0
29/02:00am 23.1 23.7 16.9 68 3.8 SW 9 11 5 6 1008.3 1008.3 0.0
29/01:30am 23.3 24.3 16.8 67 4.0 SW 7 9 4 5 1008.3 1008.3 0.0
29/01:00am 23.4 25.6 16.4 64 4.3 CALM 0 0 0 0 1008.5 1008.5 0.0
29/12:30am 23.9 25.1 18.3 71 3.5 SW 9 11 5 6 1008.5 1008.5 0.0
29/12:00am 23.9 26.2 16.7 64 4.4 CALM 0 0 0 0 1008.9 1008.9 0.0
 
Date/Time
WST
Temp
°C
App
Temp
°C
Dew
Point
°C
Rel
Hum
%
Delta-T
°C
Wind Press
QNH
hPa
Press
MSL
hPa
Rain since
9am
mm
Dir  Spd
km/h
Gust
km/h
Spd
kts
Gust
kts
28/11:30pm 25.1 27.4 18.5 67 4.2 SW 4 9 2 5 1008.9 1008.9 0.0
28/11:00pm 25.3 27.2 18.5 66 4.3 SSE 6 7 3 4 1009.2 1009.2 0.0
28/10:30pm 24.8 25.5 17.0 62 4.8 SE 9 11 5 6 1009.3 1009.3 0.0
28/10:00pm 26.0 27.2 17.4 59 5.4 NNE 7 7 4 4 1008.9 1008.9 0.0
28/09:30pm 26.8 29.0 19.2 63 4.9 NNW 6 7 3 4 1008.9 1008.9 0.0
28/09:00pm 27.4 29.9 20.2 65 4.7 N 7 9 4 5 1008.8 1008.8 0.0
28/08:30pm 28.0 30.0 20.8 65 4.8 N 11 15 6 8 1008.6 1008.6 0.0
28/08:00pm 28.3 30.5 20.3 62 5.3 NNE 9 11 5 6 1008.4 1008.4 0.0
28/07:30pm 29.0 31.2 19.6 57 6.1 NNW 7 11 4 6 1007.9 1007.9 0.0
28/07:00pm 30.0 30.8 18.1 49 7.6 NNW 11 15 6 8 1007.5 1007.5 0.0
28/06:30pm 31.4 30.5 15.8 39 9.7 NNW 15 20 8 11 1007.1 1007.1 0.0
28/06:00pm 32.4 29.8 15.8 36 10.4 N 24 32 13 17 1006.6 1006.6 0.0
28/05:30pm 33.5 30.3 16.4 36 10.8 N 28 35 15 19 1006.3 1006.3 0.0
28/05:00pm 34.1 29.9 14.6 31 12.1 N 30 35 16 19 1006.1 1006.1 0.0
28/04:30pm 34.8 31.3 16.6 33 11.6 NNE 30 37 16 20 1006.0 1006.0 0.0
28/04:00pm 35.0 32.4 17.7 36 11.2 NNE 28 37 15 20 1006.2 1006.2 0.0
28/03:30pm 34.9 31.3 17.2 35 11.4 N 32 39 17 21 1006.4 1006.4 0.0
28/03:00pm 35.9 31.1 15.6 30 12.8 NNE 35 44 19 24 1006.6 1006.6 0.0
28/02:30pm 36.6 30.6 13.4 25 14.2 NNE 37 46 20 25 1006.8 1006.8 0.0
28/02:00pm 38.0 31.6 11.9 21 15.7 NNE 37 52 20 28 1007.0 1007.0 0.0
28/01:30pm 39.0 31.1 7.7 15 17.8 NNE 39 50 21 27 1007.2 1007.2 0.0
28/01:00pm 38.7 32.1 8.4 16 17.4 NNE 33 46 18 25 1007.4 1007.4 0.0
28/12:30pm 38.7 32.9 9.3 17 17.1 NNE 30 41 16 22 1007.7 1007.7 0.0
28/12:00pm 39.9 34.1 9.3 16 17.9 NNE 30 41 16 22 1007.9 1007.9 0.0
28/11:30am 40.6 33.4 5.7 12 19.4 NE 33 46 18 25 1008.3 1008.3 0.0
28/11:00am 40.6 33.1 4.4 11 19.8 ENE 33 52 18 28 1008.6 1008.6 0.0
28/10:50am 41.1 33.0 3.4 10 20.3 E 35 54 19 29 1008.8 1008.8 0.0
28/10:30am 39.8 31.9 2.5 10 19.7 E 33 44 18 24 1009.2 1009.2 0.0
28/10:00am 38.8 31.0 3.1 11 19.0 E 33 44 18 24 1009.6 1009.6 0.0
28/09:30am 37.9 29.3 2.4 11 18.5 E 37 46 20 25 1010.0 1010.0 0.0
28/09:00am 36.7 28.1 2.7 12 17.7 E 37 52 20 28 1010.2 1010.2 0.0
28/08:30am 36.1 28.0 3.3 13 17.2 E 35 46 19 25 1010.3 1010.3 0.0
28/08:00am 35.4 26.8 2.8 13 16.9 ESE 37 52 20 28 1010.1 1010.1 0.0
28/07:30am 34.3 26.2 3.0 14 16.2 ESE 35 46 19 25 1009.9 1009.9 0.0
28/07:00am 32.4 26.6 4.2 17 14.7 ESE 24 33 13 18 1009.8 1009.8 0.0
28/06:30am 29.4 26.3 7.3 25 11.9 SE 13 19 7 10 1009.7 1009.7 0.0
28/06:29am 29.1 26.1 7.7 26 11.6 SSE 13 19 7 10 1009.7 1009.7 0.0
28/06:00am 24.1 21.5 7.7 35 8.7 S 11 13 6 7 1009.4 1009.4 0.0
28/05:30am 23.3 21.8 9.3 41 7.6 SW 7 9 4 5 1009.0 1009.0 0.0
28/05:00am 24.3 22.5 7.9 35 8.7 SW 7 9 4 5 1008.6 1008.6 0.0
28/04:30am 24.0 23.2 8.0 36 8.5 W 2 7 1 4 1008.5 1008.5 0.0
28/04:00am 24.1 22.0 8.1 36 8.5 NW 9 11 5 6 1008.1 1008.1 0.0
28/03:30am 24.0 23.0 8.8 38 8.2 WNW 4 7 2 4 1007.8 1007.8 0.0
28/03:00am 24.8 22.6 7.9 34 9.0 SW 9 11 5 6 1007.5 1007.5 0.0
28/02:30am 26.0 23.1 8.0 32 9.6 SSW 13 13 7 7 1007.4 1007.4 0.0
28/02:00am 26.8 23.6 8.3 31 10.0 SSW 15 17 8 9 1007.4 1007.4 0.0
28/01:30am 27.5 23.7 8.9 31 10.2 SSW 19 20 10 11 1007.6 1007.6 0.0
28/01:00am 27.3 23.8 8.7 31 10.2 SSW 17 19 9 10 1008.0 1008.0 0.0
28/12:30am 27.4 24.0 9.3 32 10.0 SW 17 19 9 10 1008.3 1008.3 0.0
28/12:00am 27.8 24.9 9.6 32 10.1 SSW 15 19 8 10 1008.7 1008.7 0.0
 
Date/Time
WST
Temp
°C
App
Temp
°C
Dew
Point
°C
Rel
Hum
%
Delta-T
°C
Wind Press
QNH
hPa
Press
MSL
hPa
Rain since
9am
mm
Dir  Spd
km/h
Gust
km/h
Spd
kts
Gust
kts
27/11:30pm 28.1 25.9 10.8 34 9.8 SW 13 19 7 10 1009.0 1009.0 0.0
27/11:00pm 27.0 25.2 10.7 36 9.2 SSW 11 15 6 8 1009.1 1009.1 0.0
27/10:30pm 28.2 26.1 11.3 35 9.7 SW 13 17 7 9 1009.1 1009.1 0.0
27/10:00pm 28.6 26.4 10.8 33 10.1 SW 13 19 7 10 1009.1 1009.1 0.0
27/09:30pm 27.8 25.8 11.4 36 9.4 SSW 13 20 7 11 1009.1 1009.1 0.0
27/09:00pm 28.9 28.1 12.8 37 9.5 N 9 9 5 5 1008.6 1008.6 0.0
27/08:30pm 28.6 28.4 12.9 38 9.2 WSW 6 7 3 4 1008.4 1008.4 0.0
27/08:00pm 30.1 28.8 13.8 37 9.8 N 13 15 7 8 1008.1 1008.1 0.0
27/07:30pm 31.0 29.4 12.8 32 10.8 NNW 13 15 7 8 1007.7 1007.7 0.0
27/07:00pm 32.8 30.0 11.3 27 12.6 N 17 20 9 11 1007.4 1007.4 0.0
27/06:30pm 34.1 30.4 10.0 23 13.9 N 20 28 11 15 1007.1 1007.1 0.0
27/06:00pm 35.5 30.4 9.1 20 15.1 N 26 32 14 17 1006.8 1006.8 0.0
27/05:30pm 36.3 30.6 8.2 18 15.9 N 28 33 15 18 1006.6 1006.6 0.0
27/05:00pm 37.0 31.0 7.0 16 16.8 N 28 35 15 19 1006.4 1006.4 0.0
27/04:30pm 37.6 31.1 6.6 15 17.2 N 30 35 16 19 1006.4 1006.4 0.0
27/04:00pm 38.0 32.0 6.9 15 17.4 N 28 35 15 19 1006.3 1006.3 0.0
27/03:30pm 38.5 32.0 6.3 14 17.9 NNE 30 35 16 19 1006.4 1006.4 0.0
27/03:00pm 38.6 32.4 6.3 14 18.0 NNE 28 35 15 19 1006.7 1006.7 0.0
27/02:30pm 38.2 31.4 7.0 15 17.5 N 32 37 17 20 1007.1 1007.1 0.0
27/02:00pm 38.5 31.8 7.3 15 17.6 NNE 32 37 17 20 1007.4 1007.4 0.0
27/01:30pm 37.7 31.5 9.3 18 16.4 NNE 32 39 17 21 1007.8 1007.8 0.0
27/01:00pm 38.4 32.7 9.9 18 16.7 NNE 30 37 16 20 1008.0 1008.0 0.0
27/12:30pm 39.5 33.3 6.0 13 18.6 NNE 28 41 15 22 1008.4 1008.4 0.0
27/12:00pm 38.8 33.1 6.5 14 18.1 NNE 26 39 14 21 1008.8 1008.8 0.0
27/11:30am 38.3 32.5 8.1 16 17.2 NNE 28 35 15 19 1009.2 1009.2 0.0
27/11:00am 38.6 33.4 7.4 15 17.7 NE 24 35 13 19 1009.6 1009.6 0.0
27/10:30am 38.9 32.6 5.5 13 18.4 NE 28 37 15 20 1010.1 1010.1 0.0
27/10:00am 38.6 31.9 7.4 15 17.7 E 32 54 17 29 1010.3 1010.3 0.0
27/09:54am 38.0 31.4 5.9 14 17.7 E 30 54 16 29 1010.3 1010.3 0.0
27/09:30am 37.6 30.9 5.6 14 17.5 E 30 43 16 23 1010.6 1010.6 0.0
27/09:00am 36.4 29.1 5.6 15 16.8 E 33 41 18 22 1010.7 1010.7 0.0
27/08:30am 35.1 27.6 6.4 17 15.7 ESE 35 44 19 24 1010.8 1010.8 0.0
27/08:00am 33.4 26.7 7.4 20 14.3 ESE 32 43 17 23 1010.8 1010.8 0.0
27/07:30am 32.4 27.2 7.3 21 13.7 ESE 24 33 13 18 1010.7 1010.7 0.0
27/07:00am 30.7 26.6 7.8 24 12.5 SE 19 26 10 14 1010.8 1010.8 0.0
27/06:30am 26.8 26.0 12.8 42 8.2 S 9 13 5 7 1010.6 1010.6 0.0
27/06:00am 23.6 21.8 13.2 52 6.0 SSW 15 15 8 8 1010.3 1010.3 0.0
27/05:30am 21.0 19.5 13.2 61 4.5 SSW 13 15 7 8 1009.8 1009.8 0.0
27/05:00am 20.5 19.4 13.0 62 4.3 SSW 11 13 6 7 1009.6 1009.6 0.0
27/04:30am 20.9 19.5 12.3 58 4.8 SSW 11 11 6 6 1009.5 1009.5 0.0
27/04:00am 22.0 21.2 12.8 56 5.3 SW 9 9 5 5 1009.3 1009.3 0.0
27/03:30am 22.4 22.2 13.5 57 5.1 SSW 7 9 4 5 1009.1 1009.1 0.0
27/03:00am 21.6 20.7 12.5 56 5.2 SSW 9 13 5 7 1009.3 1009.3 0.0
27/02:30am 23.4 22.9 13.8 54 5.6 SW 9 11 5 6 1009.4 1009.4 0.0
27/02:00am 24.2 23.2 14.6 55 5.7 SW 13 15 7 8 1009.5 1009.5 0.0
27/01:30am 24.2 23.5 15.4 58 5.3 SW 13 17 7 9 1009.7 1009.7 0.0
27/01:00am 24.6 24.4 15.8 58 5.3 SW 11 13 6 7 1009.8 1009.8 0.0
27/12:30am 25.0 25.0 16.2 58 5.4 SW 11 15 6 8 1010.0 1010.0 0.0
27/12:00am 25.9 25.9 17.3 59 5.4 SW 13 17 7 9 1010.2 1010.2 0.0
 
Date/Time
WST
Temp
°C
App
Temp
°C
Dew
Point
°C
Rel
Hum
%
Delta-T
°C
Wind Press
QNH
hPa
Press
MSL
hPa
Rain since
9am
mm
Dir  Spd
km/h
Gust
km/h
Spd
kts
Gust
kts
26/11:30pm 26.1 26.9 18.2 61 5.0 SW 11 15 6 8 1010.5 1010.5 0.0

Other formats

Comma delimited format used in spreadsheet applications
http://www.bom.gov.au/fwo/IDW60801/IDW60801.94308.axf

JavaScript Object Notation format (JSON) in row-major order
http://www.bom.gov.au/fwo/IDW60801/IDW60801.94308.json

Data quality

Most of these data are generated automatically and are frequently updated. Quality checks on data are not normally performed. It is possible for incorrect values to appear. Refer to information at About Latest Weather Observations and please check the disclaimer before using these data.